sensor_id;sensor_type;location;lat;lon;timestamp;temperature;humidity
29403;DHT22;16382;59.942;30.472;2022-12-24T00:01:02;3.70;99.90
29403;DHT22;16382;59.942;30.472;2022-12-24T00:03:30;3.70;99.90
29403;DHT22;16382;59.942;30.472;2022-12-24T00:05:58;3.80;99.90
29403;DHT22;16382;59.942;30.472;2022-12-24T00:08:25;3.80;99.90
29403;DHT22;16382;59.942;30.472;2022-12-24T00:10:53;3.80;99.90
29403;DHT22;16382;59.942;30.472;2022-12-24T00:13:22;3.80;99.90
29403;DHT22;16382;59.942;30.472;2022-12-24T00:15:49;3.80;99.90
29403;DHT22;16382;59.942;30.472;2022-12-24T00:18:17;3.90;99.90
29403;DHT22;16382;59.942;30.472;2022-12-24T00:20:46;3.90;99.90
29403;DHT22;16382;59.942;30.472;2022-12-24T00:23:14;3.90;99.90
29403;DHT22;16382;59.942;30.472;2022-12-24T00:25:42;3.90;99.90
29403;DHT22;16382;59.942;30.472;2022-12-24T00:28:10;3.80;99.90
29403;DHT22;16382;59.942;30.472;2022-12-24T00:30:39;3.90;99.90
29403;DHT22;16382;59.942;30.472;2022-12-24T00:33:07;3.80;99.90
29403;DHT22;16382;59.942;30.472;2022-12-24T00:35:35;3.80;99.90
29403;DHT22;16382;59.942;30.472;2022-12-24T00:38:03;3.80;99.90
29403;DHT22;16382;59.942;30.472;2022-12-24T00:40:31;3.80;99.90
29403;DHT22;16382;59.942;30.472;2022-12-24T00:42:59;3.70;99.90
29403;DHT22;16382;59.942;30.472;2022-12-24T00:45:27;3.70;99.90
29403;DHT22;16382;59.942;30.472;2022-12-24T00:47:56;3.70;99.90
29403;DHT22;16382;59.942;30.472;2022-12-24T00:50:24;3.60;99.90
29403;DHT22;16382;59.942;30.472;2022-12-24T00:52:51;3.60;99.90
29403;DHT22;16382;59.942;30.472;2022-12-24T00:55:19;3.50;99.90
29403;DHT22;16382;59.942;30.472;2022-12-24T00:57:47;3.50;99.90
29403;DHT22;16382;59.942;30.472;2022-12-24T01:00:14;3.50;99.90
29403;DHT22;16382;59.942;30.472;2022-12-24T01:02:43;3.50;99.90
29403;DHT22;16382;59.942;30.472;2022-12-24T01:05:12;3.50;99.90
29403;DHT22;16382;59.942;30.472;2022-12-24T01:07:40;3.50;99.90
29403;DHT22;16382;59.942;30.472;2022-12-24T01:10:10;3.50;99.90
29403;DHT22;16382;59.942;30.472;2022-12-24T01:12:38;3.50;99.90
29403;DHT22;16382;59.942;30.472;2022-12-24T01:15:07;3.50;99.90
29403;DHT22;16382;59.942;30.472;2022-12-24T01:17:36;3.50;99.90
29403;DHT22;16382;59.942;30.472;2022-12-24T01:20:05;3.50;99.90
29403;DHT22;16382;59.942;30.472;2022-12-24T01:22:38;3.40;99.90
29403;DHT22;16382;59.942;30.472;2022-12-24T01:25:06;3.40;99.90
29403;DHT22;16382;59.942;30.472;2022-12-24T01:27:34;3.30;99.90
29403;DHT22;16382;59.942;30.472;2022-12-24T01:30:02;3.30;99.90
29403;DHT22;16382;59.942;30.472;2022-12-24T01:32:31;3.30;99.90
29403;DHT22;16382;59.942;30.472;2022-12-24T01:34:58;3.30;99.90
29403;DHT22;16382;59.942;30.472;2022-12-24T01:37:26;3.30;99.90
29403;DHT22;16382;59.942;30.472;2022-12-24T01:39:54;3.20;99.90
29403;DHT22;16382;59.942;30.472;2022-12-24T01:42:45;3.20;99.90
29403;DHT22;16382;59.942;30.472;2022-12-24T01:45:43;3.20;99.90
29403;DHT22;16382;59.942;30.472;2022-12-24T01:48:16;3.20;99.90
29403;DHT22;16382;59.942;30.472;2022-12-24T01:50:51;3.20;99.90
29403;DHT22;16382;59.942;30.472;2022-12-24T01:53:21;3.30;99.90
29403;DHT22;16382;59.942;30.472;2022-12-24T01:55:50;3.20;99.90
29403;DHT22;16382;59.942;30.472;2022-12-24T01:58:20;3.30;99.90
29403;DHT22;16382;59.942;30.472;2022-12-24T02:00:49;3.30;99.90
29403;DHT22;16382;59.942;30.472;2022-12-24T02:03:17;3.30;99.90
29403;DHT22;16382;59.942;30.472;2022-12-24T02:05:47;3.30;99.90
29403;DHT22;16382;59.942;30.472;2022-12-24T02:08:16;3.30;99.90
29403;DHT22;16382;59.942;30.472;2022-12-24T02:10:44;3.20;99.90
29403;DHT22;16382;59.942;30.472;2022-12-24T02:13:17;3.20;99.90
29403;DHT22;16382;59.942;30.472;2022-12-24T02:16:16;3.20;99.90
29403;DHT22;16382;59.942;30.472;2022-12-24T02:18:54;3.20;99.90
29403;DHT22;16382;59.942;30.472;2022-12-24T02:21:44;3.10;99.90
29403;DHT22;16382;59.942;30.472;2022-12-24T02:27:41;3.10;99.90
29403;DHT22;16382;59.942;30.472;2022-12-24T02:30:17;3.10;99.90
29403;DHT22;16382;59.942;30.472;2022-12-24T02:32:54;3.10;99.90
29403;DHT22;16382;59.942;30.472;2022-12-24T02:35:35;3.10;99.90
29403;DHT22;16382;59.942;30.472;2022-12-24T02:38:12;3.10;99.90
29403;DHT22;16382;59.942;30.472;2022-12-24T02:40:45;3.10;99.90
29403;DHT22;16382;59.942;30.472;2022-12-24T02:43:20;3.10;99.90
29403;DHT22;16382;59.942;30.472;2022-12-24T02:45:58;3.00;99.90
29403;DHT22;16382;59.942;30.472;2022-12-24T02:48:29;3.10;99.90
29403;DHT22;16382;59.942;30.472;2022-12-24T02:51:02;3.10;99.90
29403;DHT22;16382;59.942;30.472;2022-12-24T02:53:31;3.10;99.90
29403;DHT22;16382;59.942;30.472;2022-12-24T02:56:18;3.00;99.90
29403;DHT22;16382;59.942;30.472;2022-12-24T02:58:57;3.00;99.90
29403;DHT22;16382;59.942;30.472;2022-12-24T03:01:38;3.00;99.90
29403;DHT22;16382;59.942;30.472;2022-12-24T03:04:18;2.90;99.90
29403;DHT22;16382;59.942;30.472;2022-12-24T03:07:09;2.90;99.90
29403;DHT22;16382;59.942;30.472;2022-12-24T03:09:52;2.90;99.90
29403;DHT22;16382;59.942;30.472;2022-12-24T03:12:29;2.80;99.90
29403;DHT22;16382;59.942;30.472;2022-12-24T03:14:58;2.80;99.90
29403;DHT22;16382;59.942;30.472;2022-12-24T03:17:28;2.80;99.90
29403;DHT22;16382;59.942;30.472;2022-12-24T03:19:56;2.70;99.90
29403;DHT22;16382;59.942;30.472;2022-12-24T03:22:24;2.70;99.90
29403;DHT22;16382;59.942;30.472;2022-12-24T03:24:52;2.60;99.90
29403;DHT22;16382;59.942;30.472;2022-12-24T03:27:20;2.60;99.90
29403;DHT22;16382;59.942;30.472;2022-12-24T03:29:48;2.50;99.90
29403;DHT22;16382;59.942;30.472;2022-12-24T03:32:22;2.40;99.90
29403;DHT22;16382;59.942;30.472;2022-12-24T03:34:52;2.40;99.90
29403;DHT22;16382;59.942;30.472;2022-12-24T03:37:19;2.40;99.90
29403;DHT22;16382;59.942;30.472;2022-12-24T03:39:47;2.30;99.90
29403;DHT22;16382;59.942;30.472;2022-12-24T03:42:14;2.30;99.90
29403;DHT22;16382;59.942;30.472;2022-12-24T03:44:42;2.30;99.90
29403;DHT22;16382;59.942;30.472;2022-12-24T03:47:10;2.40;99.90
29403;DHT22;16382;59.942;30.472;2022-12-24T03:49:38;2.30;99.90
29403;DHT22;16382;59.942;30.472;2022-12-24T03:52:06;2.40;99.90
29403;DHT22;16382;59.942;30.472;2022-12-24T03:54:34;2.40;99.90
29403;DHT22;16382;59.942;30.472;2022-12-24T03:57:01;2.40;99.90
29403;DHT22;16382;59.942;30.472;2022-12-24T03:59:29;2.40;99.90
29403;DHT22;16382;59.942;30.472;2022-12-24T04:01:57;2.40;99.90
29403;DHT22;16382;59.942;30.472;2022-12-24T04:04:24;2.40;99.90
29403;DHT22;16382;59.942;30.472;2022-12-24T04:06:52;2.40;99.90
29403;DHT22;16382;59.942;30.472;2022-12-24T04:09:21;2.30;99.90
29403;DHT22;16382;59.942;30.472;2022-12-24T04:11:48;2.20;99.90
29403;DHT22;16382;59.942;30.472;2022-12-24T04:14:16;2.10;99.90
29403;DHT22;16382;59.942;30.472;2022-12-24T04:16:43;2.00;99.90
29403;DHT22;16382;59.942;30.472;2022-12-24T04:19:11;2.00;99.90
29403;DHT22;16382;59.942;30.472;2022-12-24T04:21:38;1.80;99.90
29403;DHT22;16382;59.942;30.472;2022-12-24T04:24:08;1.70;99.90
29403;DHT22;16382;59.942;30.472;2022-12-24T04:26:38;1.60;99.90
29403;DHT22;16382;59.942;30.472;2022-12-24T04:29:05;1.60;99.90
29403;DHT22;16382;59.942;30.472;2022-12-24T04:31:33;1.60;99.90
29403;DHT22;16382;59.942;30.472;2022-12-24T04:34:00;1.60;99.90
29403;DHT22;16382;59.942;30.472;2022-12-24T04:36:28;1.50;99.90
29403;DHT22;16382;59.942;30.472;2022-12-24T04:38:56;1.50;99.90
29403;DHT22;16382;59.942;30.472;2022-12-24T04:41:23;1.50;99.90
29403;DHT22;16382;59.942;30.472;2022-12-24T04:43:54;1.60;99.90
29403;DHT22;16382;59.942;30.472;2022-12-24T04:46:23;1.60;99.90
29403;DHT22;16382;59.942;30.472;2022-12-24T04:48:53;1.50;99.90
29403;DHT22;16382;59.942;30.472;2022-12-24T04:51:21;1.40;99.90
29403;DHT22;16382;59.942;30.472;2022-12-24T04:53:50;1.30;99.90
29403;DHT22;16382;59.942;30.472;2022-12-24T04:56:19;1.20;99.90
29403;DHT22;16382;59.942;30.472;2022-12-24T04:58:49;1.10;99.90
29403;DHT22;16382;59.942;30.472;2022-12-24T05:01:21;1.00;99.90
29403;DHT22;16382;59.942;30.472;2022-12-24T05:03:50;0.90;99.90
29403;DHT22;16382;59.942;30.472;2022-12-24T05:06:20;0.90;99.90
29403;DHT22;16382;59.942;30.472;2022-12-24T05:08:49;0.80;99.90
29403;DHT22;16382;59.942;30.472;2022-12-24T05:11:16;0.70;99.90
29403;DHT22;16382;59.942;30.472;2022-12-24T05:13:45;0.70;99.90
29403;DHT22;16382;59.942;30.472;2022-12-24T05:16:17;0.60;99.90
29403;DHT22;16382;59.942;30.472;2022-12-24T05:18:48;0.50;99.90
29403;DHT22;16382;59.942;30.472;2022-12-24T05:21:17;0.50;99.90
29403;DHT22;16382;59.942;30.472;2022-12-24T05:23:46;0.50;99.90
29403;DHT22;16382;59.942;30.472;2022-12-24T05:26:34;0.40;99.90
29403;DHT22;16382;59.942;30.472;2022-12-24T05:29:05;0.40;99.90
29403;DHT22;16382;59.942;30.472;2022-12-24T05:31:35;0.30;99.90
29403;DHT22;16382;59.942;30.472;2022-12-24T05:34:05;0.30;99.90
29403;DHT22;16382;59.942;30.472;2022-12-24T05:36:33;0.20;99.90
29403;DHT22;16382;59.942;30.472;2022-12-24T05:39:00;0.20;99.90
29403;DHT22;16382;59.942;30.472;2022-12-24T05:41:28;0.20;99.90
29403;DHT22;16382;59.942;30.472;2022-12-24T05:43:56;0.10;99.90
29403;DHT22;16382;59.942;30.472;2022-12-24T05:46:24;0.10;99.90
29403;DHT22;16382;59.942;30.472;2022-12-24T05:48:53;0.00;99.90
29403;DHT22;16382;59.942;30.472;2022-12-24T05:51:21;0.10;99.90
29403;DHT22;16382;59.942;30.472;2022-12-24T05:53:50;0.00;99.90
29403;DHT22;16382;59.942;30.472;2022-12-24T05:56:19;0.00;99.90
29403;DHT22;16382;59.942;30.472;2022-12-24T05:58:49;0.00;99.90
29403;DHT22;16382;59.942;30.472;2022-12-24T06:01:18;0.00;99.90
29403;DHT22;16382;59.942;30.472;2022-12-24T06:03:47;0.00;99.90
29403;DHT22;16382;59.942;30.472;2022-12-24T06:06:18;-0.10;99.90
29403;DHT22;16382;59.942;30.472;2022-12-24T06:08:47;-0.10;99.90
29403;DHT22;16382;59.942;30.472;2022-12-24T06:11:18;-0.10;99.90
29403;DHT22;16382;59.942;30.472;2022-12-24T06:13:47;-0.10;99.90
29403;DHT22;16382;59.942;30.472;2022-12-24T06:16:16;-0.20;99.90
29403;DHT22;16382;59.942;30.472;2022-12-24T06:18:45;-0.20;99.90
29403;DHT22;16382;59.942;30.472;2022-12-24T06:21:13;-0.20;99.90
29403;DHT22;16382;59.942;30.472;2022-12-24T06:23:43;-0.30;99.90
29403;DHT22;16382;59.942;30.472;2022-12-24T06:26:13;-0.30;99.90
29403;DHT22;16382;59.942;30.472;2022-12-24T06:28:43;-0.30;99.90
29403;DHT22;16382;59.942;30.472;2022-12-24T06:31:12;-0.20;99.90
29403;DHT22;16382;59.942;30.472;2022-12-24T06:33:41;-0.20;99.90
29403;DHT22;16382;59.942;30.472;2022-12-24T06:36:12;-0.20;99.90
29403;DHT22;16382;59.942;30.472;2022-12-24T06:38:42;-0.10;99.90
29403;DHT22;16382;59.942;30.472;2022-12-24T06:41:10;-0.10;99.90
29403;DHT22;16382;59.942;30.472;2022-12-24T06:43:43;0.00;99.90
29403;DHT22;16382;59.942;30.472;2022-12-24T06:46:12;0.10;99.90
29403;DHT22;16382;59.942;30.472;2022-12-24T06:48:40;0.20;99.90
29403;DHT22;16382;59.942;30.472;2022-12-24T06:51:09;0.20;99.90
29403;DHT22;16382;59.942;30.472;2022-12-24T06:53:36;0.20;99.90
29403;DHT22;16382;59.942;30.472;2022-12-24T06:56:07;0.20;99.90
29403;DHT22;16382;59.942;30.472;2022-12-24T06:58:36;0.30;99.90
29403;DHT22;16382;59.942;30.472;2022-12-24T07:01:05;0.20;99.90
29403;DHT22;16382;59.942;30.472;2022-12-24T07:03:34;0.20;99.90
29403;DHT22;16382;59.942;30.472;2022-12-24T07:06:03;0.10;99.90
29403;DHT22;16382;59.942;30.472;2022-12-24T07:08:31;0.10;99.90
29403;DHT22;16382;59.942;30.472;2022-12-24T07:11:01;0.10;99.90
29403;DHT22;16382;59.942;30.472;2022-12-24T07:13:30;0.10;99.90
29403;DHT22;16382;59.942;30.472;2022-12-24T07:16:00;0.20;99.90
29403;DHT22;16382;59.942;30.472;2022-12-24T07:18:28;0.10;99.90
29403;DHT22;16382;59.942;30.472;2022-12-24T07:20:57;0.10;99.90
29403;DHT22;16382;59.942;30.472;2022-12-24T07:23:25;0.00;99.90
29403;DHT22;16382;59.942;30.472;2022-12-24T07:25:52;0.00;99.90
29403;DHT22;16382;59.942;30.472;2022-12-24T07:28:20;0.00;99.90
29403;DHT22;16382;59.942;30.472;2022-12-24T07:30:49;0.00;99.90
29403;DHT22;16382;59.942;30.472;2022-12-24T07:33:17;0.00;99.90
29403;DHT22;16382;59.942;30.472;2022-12-24T07:35:44;0.00;99.90
29403;DHT22;16382;59.942;30.472;2022-12-24T07:38:12;0.00;99.90
29403;DHT22;16382;59.942;30.472;2022-12-24T07:40:40;0.10;99.90
29403;DHT22;16382;59.942;30.472;2022-12-24T07:43:08;0.20;99.90
29403;DHT22;16382;59.942;30.472;2022-12-24T07:45:38;0.30;99.90
29403;DHT22;16382;59.942;30.472;2022-12-24T07:48:18;0.40;99.90
29403;DHT22;16382;59.942;30.472;2022-12-24T07:50:47;0.40;99.90
29403;DHT22;16382;59.942;30.472;2022-12-24T07:53:15;0.40;99.90
29403;DHT22;16382;59.942;30.472;2022-12-24T07:55:43;0.40;99.90
29403;DHT22;16382;59.942;30.472;2022-12-24T07:58:11;0.40;99.90
29403;DHT22;16382;59.942;30.472;2022-12-24T08:00:39;0.50;99.90
29403;DHT22;16382;59.942;30.472;2022-12-24T08:03:08;0.50;99.90
29403;DHT22;16382;59.942;30.472;2022-12-24T08:05:41;0.50;99.90
29403;DHT22;16382;59.942;30.472;2022-12-24T08:08:10;0.50;99.90
29403;DHT22;16382;59.942;30.472;2022-12-24T08:10:38;0.60;99.90
29403;DHT22;16382;59.942;30.472;2022-12-24T08:13:06;0.50;99.90
29403;DHT22;16382;59.942;30.472;2022-12-24T08:15:33;0.40;99.90
29403;DHT22;16382;59.942;30.472;2022-12-24T08:18:01;0.40;99.90
29403;DHT22;16382;59.942;30.472;2022-12-24T08:20:29;0.30;99.90
29403;DHT22;16382;59.942;30.472;2022-12-24T08:23:04;0.30;99.90
29403;DHT22;16382;59.942;30.472;2022-12-24T08:25:32;0.30;99.90
29403;DHT22;16382;59.942;30.472;2022-12-24T08:28:00;0.30;99.90
29403;DHT22;16382;59.942;30.472;2022-12-24T08:30:27;0.30;99.90
29403;DHT22;16382;59.942;30.472;2022-12-24T08:32:55;0.30;99.90
29403;DHT22;16382;59.942;30.472;2022-12-24T08:35:22;0.30;99.90
29403;DHT22;16382;59.942;30.472;2022-12-24T08:37:50;0.30;99.90
29403;DHT22;16382;59.942;30.472;2022-12-24T08:40:19;0.30;99.90
29403;DHT22;16382;59.942;30.472;2022-12-24T08:42:47;0.40;99.90
29403;DHT22;16382;59.942;30.472;2022-12-24T08:45:15;0.40;99.90
29403;DHT22;16382;59.942;30.472;2022-12-24T08:47:43;0.50;99.90
29403;DHT22;16382;59.942;30.472;2022-12-24T08:50:11;0.50;99.90
29403;DHT22;16382;59.942;30.472;2022-12-24T08:52:39;0.50;99.90
29403;DHT22;16382;59.942;30.472;2022-12-24T08:55:07;0.60;99.90
29403;DHT22;16382;59.942;30.472;2022-12-24T08:57:37;0.70;99.90
29403;DHT22;16382;59.942;30.472;2022-12-24T09:00:06;0.70;99.90
29403;DHT22;16382;59.942;30.472;2022-12-24T09:02:34;0.70;99.90
29403;DHT22;16382;59.942;30.472;2022-12-24T09:05:02;0.60;99.90
29403;DHT22;16382;59.942;30.472;2022-12-24T09:07:30;0.70;99.90
29403;DHT22;16382;59.942;30.472;2022-12-24T09:09:58;0.70;99.90
29403;DHT22;16382;59.942;30.472;2022-12-24T09:12:25;0.80;99.90
29403;DHT22;16382;59.942;30.472;2022-12-24T09:14:54;0.80;99.90
29403;DHT22;16382;59.942;30.472;2022-12-24T09:17:21;0.80;99.90
29403;DHT22;16382;59.942;30.472;2022-12-24T09:19:49;0.90;99.90
29403;DHT22;16382;59.942;30.472;2022-12-24T09:22:17;0.90;99.90
29403;DHT22;16382;59.942;30.472;2022-12-24T09:24:44;0.90;99.90
29403;DHT22;16382;59.942;30.472;2022-12-24T09:27:12;1.00;99.90
29403;DHT22;16382;59.942;30.472;2022-12-24T09:29:40;1.00;99.90
29403;DHT22;16382;59.942;30.472;2022-12-24T09:32:09;1.00;99.90
29403;DHT22;16382;59.942;30.472;2022-12-24T09:34:37;0.90;99.90
29403;DHT22;16382;59.942;30.472;2022-12-24T09:37:05;0.90;99.90
29403;DHT22;16382;59.942;30.472;2022-12-24T09:39:33;0.90;99.90
29403;DHT22;16382;59.942;30.472;2022-12-24T09:42:10;0.90;99.90
29403;DHT22;16382;59.942;30.472;2022-12-24T09:44:45;1.00;99.90
29403;DHT22;16382;59.942;30.472;2022-12-24T09:47:23;1.00;99.90
29403;DHT22;16382;59.942;30.472;2022-12-24T09:49:55;1.00;99.90
29403;DHT22;16382;59.942;30.472;2022-12-24T09:52:29;1.10;99.90
29403;DHT22;16382;59.942;30.472;2022-12-24T09:55:05;1.10;99.90
29403;DHT22;16382;59.942;30.472;2022-12-24T09:57:40;1.20;99.90
29403;DHT22;16382;59.942;30.472;2022-12-24T10:00:17;1.20;99.90
29403;DHT22;16382;59.942;30.472;2022-12-24T10:02:48;1.20;99.90
29403;DHT22;16382;59.942;30.472;2022-12-24T10:05:17;1.20;99.90
29403;DHT22;16382;59.942;30.472;2022-12-24T10:07:59;1.30;99.90
29403;DHT22;16382;59.942;30.472;2022-12-24T10:10:37;1.40;99.90
29403;DHT22;16382;59.942;30.472;2022-12-24T10:13:15;1.40;99.90
29403;DHT22;16382;59.942;30.472;2022-12-24T10:15:52;1.40;99.90
29403;DHT22;16382;59.942;30.472;2022-12-24T10:18:32;1.40;99.90
29403;DHT22;16382;59.942;30.472;2022-12-24T10:21:08;1.50;99.90
29403;DHT22;16382;59.942;30.472;2022-12-24T10:23:45;1.60;99.90
29403;DHT22;16382;59.942;30.472;2022-12-24T10:26:19;1.60;99.90
29403;DHT22;16382;59.942;30.472;2022-12-24T10:28:55;1.70;99.90
29403;DHT22;16382;59.942;30.472;2022-12-24T10:31:31;1.60;99.90
29403;DHT22;16382;59.942;30.472;2022-12-24T10:34:11;1.50;99.90
29403;DHT22;16382;59.942;30.472;2022-12-24T10:36:41;1.50;99.90
29403;DHT22;16382;59.942;30.472;2022-12-24T10:39:12;1.40;99.90
29403;DHT22;16382;59.942;30.472;2022-12-24T10:41:44;1.40;99.90
29403;DHT22;16382;59.942;30.472;2022-12-24T10:44:15;1.40;99.90
29403;DHT22;16382;59.942;30.472;2022-12-24T10:46:45;1.30;99.90
29403;DHT22;16382;59.942;30.472;2022-12-24T10:49:16;1.20;99.90
29403;DHT22;16382;59.942;30.472;2022-12-24T10:51:50;1.20;99.90
29403;DHT22;16382;59.942;30.472;2022-12-24T10:54:22;1.10;99.90
29403;DHT22;16382;59.942;30.472;2022-12-24T10:56:55;1.00;99.90
29403;DHT22;16382;59.942;30.472;2022-12-24T10:59:25;1.00;99.90
29403;DHT22;16382;59.942;30.472;2022-12-24T11:01:55;1.10;99.90
29403;DHT22;16382;59.942;30.472;2022-12-24T11:04:28;1.10;99.90
29403;DHT22;16382;59.942;30.472;2022-12-24T11:06:59;1.10;99.90
29403;DHT22;16382;59.942;30.472;2022-12-24T11:09:30;1.10;99.90
29403;DHT22;16382;59.942;30.472;2022-12-24T11:11:59;1.00;99.90
29403;DHT22;16382;59.942;30.472;2022-12-24T11:14:33;1.00;99.90
29403;DHT22;16382;59.942;30.472;2022-12-24T11:17:03;1.10;99.90
29403;DHT22;16382;59.942;30.472;2022-12-24T11:19:34;1.00;99.90
29403;DHT22;16382;59.942;30.472;2022-12-24T11:22:06;1.00;99.90
29403;DHT22;16382;59.942;30.472;2022-12-24T11:24:57;1.10;99.90
29403;DHT22;16382;59.942;30.472;2022-12-24T11:27:33;1.00;99.90
29403;DHT22;16382;59.942;30.472;2022-12-24T11:30:22;1.00;99.90
29403;DHT22;16382;59.942;30.472;2022-12-24T11:33:20;1.00;99.90
29403;DHT22;16382;59.942;30.472;2022-12-24T11:35:53;1.00;99.90
29403;DHT22;16382;59.942;30.472;2022-12-24T11:38:24;1.00;99.90
29403;DHT22;16382;59.942;30.472;2022-12-24T11:41:00;1.00;99.90
29403;DHT22;16382;59.942;30.472;2022-12-24T11:43:51;1.10;99.90
29403;DHT22;16382;59.942;30.472;2022-12-24T11:46:36;1.10;99.90
29403;DHT22;16382;59.942;30.472;2022-12-24T11:49:14;1.10;99.90
29403;DHT22;16382;59.942;30.472;2022-12-24T11:52:09;1.00;99.90
29403;DHT22;16382;59.942;30.472;2022-12-24T11:55:03;0.90;99.90
29403;DHT22;16382;59.942;30.472;2022-12-24T11:57:46;0.90;99.90
29403;DHT22;16382;59.942;30.472;2022-12-24T12:00:20;0.90;99.90
29403;DHT22;16382;59.942;30.472;2022-12-24T12:02:50;0.90;99.90
29403;DHT22;16382;59.942;30.472;2022-12-24T12:05:27;0.90;99.90
29403;DHT22;16382;59.942;30.472;2022-12-24T12:08:01;0.90;99.90
29403;DHT22;16382;59.942;30.472;2022-12-24T12:10:37;1.00;99.90
29403;DHT22;16382;59.942;30.472;2022-12-24T12:13:12;0.90;99.90
29403;DHT22;16382;59.942;30.472;2022-12-24T12:15:44;0.90;99.90
29403;DHT22;16382;59.942;30.472;2022-12-24T12:18:22;1.00;99.90
29403;DHT22;16382;59.942;30.472;2022-12-24T12:20:57;1.00;99.90
29403;DHT22;16382;59.942;30.472;2022-12-24T12:23:30;1.00;99.90
29403;DHT22;16382;59.942;30.472;2022-12-24T12:26:07;1.10;99.90
29403;DHT22;16382;59.942;30.472;2022-12-24T12:28:41;1.00;99.90
29403;DHT22;16382;59.942;30.472;2022-12-24T12:31:18;1.00;99.90
29403;DHT22;16382;59.942;30.472;2022-12-24T12:33:51;1.00;99.90
29403;DHT22;16382;59.942;30.472;2022-12-24T12:36:27;1.00;99.90
29403;DHT22;16382;59.942;30.472;2022-12-24T12:39:02;1.00;99.90
29403;DHT22;16382;59.942;30.472;2022-12-24T12:41:45;1.00;99.90
29403;DHT22;16382;59.942;30.472;2022-12-24T12:44:34;1.00;99.90
29403;DHT22;16382;59.942;30.472;2022-12-24T12:50:26;1.00;99.90
29403;DHT22;16382;59.942;30.472;2022-12-24T12:53:14;1.00;99.90
29403;DHT22;16382;59.942;30.472;2022-12-24T12:56:03;0.90;99.90
29403;DHT22;16382;59.942;30.472;2022-12-24T12:58:40;0.90;99.90
29403;DHT22;16382;59.942;30.472;2022-12-24T13:01:14;0.80;99.90
29403;DHT22;16382;59.942;30.472;2022-12-24T13:04:09;0.90;99.90
29403;DHT22;16382;59.942;30.472;2022-12-24T13:07:15;0.90;99.90
29403;DHT22;16382;59.942;30.472;2022-12-24T13:10:22;0.90;99.90
29403;DHT22;16382;59.942;30.472;2022-12-24T13:13:27;0.90;99.90
29403;DHT22;16382;59.942;30.472;2022-12-24T13:16:16;0.90;99.90
29403;DHT22;16382;59.942;30.472;2022-12-24T13:19:22;0.90;99.90
29403;DHT22;16382;59.942;30.472;2022-12-24T13:21:56;0.90;99.90
29403;DHT22;16382;59.942;30.472;2022-12-24T13:24:25;0.80;99.90
29403;DHT22;16382;59.942;30.472;2022-12-24T13:27:01;0.80;99.90
29403;DHT22;16382;59.942;30.472;2022-12-24T13:29:43;0.90;99.90
29403;DHT22;16382;59.942;30.472;2022-12-24T13:32:49;0.80;99.90
29403;DHT22;16382;59.942;30.472;2022-12-24T13:35:32;0.80;99.90
29403;DHT22;16382;59.942;30.472;2022-12-24T13:41:42;0.80;99.90
29403;DHT22;16382;59.942;30.472;2022-12-24T13:44:22;0.80;99.90
29403;DHT22;16382;59.942;30.472;2022-12-24T13:47:02;0.80;99.90
29403;DHT22;16382;59.942;30.472;2022-12-24T13:49:49;0.90;99.90
29403;DHT22;16382;59.942;30.472;2022-12-24T13:52:25;0.90;99.90
29403;DHT22;16382;59.942;30.472;2022-12-24T13:55:06;0.90;99.90
29403;DHT22;16382;59.942;30.472;2022-12-24T13:57:46;0.80;99.90
29403;DHT22;16382;59.942;30.472;2022-12-24T14:00:38;0.80;99.90
29403;DHT22;16382;59.942;30.472;2022-12-24T14:03:24;0.80;99.90
29403;DHT22;16382;59.942;30.472;2022-12-24T14:05:57;0.80;99.90
29403;DHT22;16382;59.942;30.472;2022-12-24T14:08:29;0.90;99.90
29403;DHT22;16382;59.942;30.472;2022-12-24T14:11:06;0.90;99.90
29403;DHT22;16382;59.942;30.472;2022-12-24T14:13:55;0.90;99.90
29403;DHT22;16382;59.942;30.472;2022-12-24T14:16:47;1.00;99.90
29403;DHT22;16382;59.942;30.472;2022-12-24T14:19:20;0.90;99.90
29403;DHT22;16382;59.942;30.472;2022-12-24T14:21:54;0.90;99.90
29403;DHT22;16382;59.942;30.472;2022-12-24T14:24:26;0.90;99.90
29403;DHT22;16382;59.942;30.472;2022-12-24T14:26:57;0.90;99.90
29403;DHT22;16382;59.942;30.472;2022-12-24T14:29:28;0.90;99.90
29403;DHT22;16382;59.942;30.472;2022-12-24T14:31:58;0.90;99.90
29403;DHT22;16382;59.942;30.472;2022-12-24T14:34:30;0.90;99.90
29403;DHT22;16382;59.942;30.472;2022-12-24T14:36:58;0.90;99.90
29403;DHT22;16382;59.942;30.472;2022-12-24T14:39:33;0.90;99.90
29403;DHT22;16382;59.942;30.472;2022-12-24T14:42:14;0.90;99.90
29403;DHT22;16382;59.942;30.472;2022-12-24T14:44:54;0.80;99.90
29403;DHT22;16382;59.942;30.472;2022-12-24T14:47:34;0.80;99.90
29403;DHT22;16382;59.942;30.472;2022-12-24T14:50:23;0.80;99.90
29403;DHT22;16382;59.942;30.472;2022-12-24T14:52:59;0.80;99.90
29403;DHT22;16382;59.942;30.472;2022-12-24T14:55:35;0.80;99.90
29403;DHT22;16382;59.942;30.472;2022-12-24T14:58:32;0.90;99.90
29403;DHT22;16382;59.942;30.472;2022-12-24T15:01:02;0.80;99.90
29403;DHT22;16382;59.942;30.472;2022-12-24T15:03:43;0.80;99.90
29403;DHT22;16382;59.942;30.472;2022-12-24T15:06:13;0.80;99.90
29403;DHT22;16382;59.942;30.472;2022-12-24T15:08:47;0.80;99.90
29403;DHT22;16382;59.942;30.472;2022-12-24T15:11:17;0.80;99.90
29403;DHT22;16382;59.942;30.472;2022-12-24T15:13:49;0.70;99.90
29403;DHT22;16382;59.942;30.472;2022-12-24T15:16:22;0.70;99.90
29403;DHT22;16382;59.942;30.472;2022-12-24T15:18:56;0.70;99.90
29403;DHT22;16382;59.942;30.472;2022-12-24T15:21:35;0.70;99.90
29403;DHT22;16382;59.942;30.472;2022-12-24T15:24:23;0.70;99.90
29403;DHT22;16382;59.942;30.472;2022-12-24T15:26:51;0.70;99.90
29403;DHT22;16382;59.942;30.472;2022-12-24T15:29:21;0.60;99.90
29403;DHT22;16382;59.942;30.472;2022-12-24T15:31:54;0.60;99.90
29403;DHT22;16382;59.942;30.472;2022-12-24T15:34:26;0.60;99.90
29403;DHT22;16382;59.942;30.472;2022-12-24T15:37:03;0.60;99.90
29403;DHT22;16382;59.942;30.472;2022-12-24T15:39:31;0.60;99.90
29403;DHT22;16382;59.942;30.472;2022-12-24T15:42:01;0.60;99.90
29403;DHT22;16382;59.942;30.472;2022-12-24T15:44:46;0.60;99.90
29403;DHT22;16382;59.942;30.472;2022-12-24T15:47:26;0.50;99.90
29403;DHT22;16382;59.942;30.472;2022-12-24T15:50:04;0.50;99.90
29403;DHT22;16382;59.942;30.472;2022-12-24T15:52:42;0.50;99.90
29403;DHT22;16382;59.942;30.472;2022-12-24T15:55:25;0.50;99.90
29403;DHT22;16382;59.942;30.472;2022-12-24T15:57:54;0.50;99.90
29403;DHT22;16382;59.942;30.472;2022-12-24T16:00:23;0.50;99.90
29403;DHT22;16382;59.942;30.472;2022-12-24T16:03:09;0.50;99.90
29403;DHT22;16382;59.942;30.472;2022-12-24T16:05:38;0.50;99.90
29403;DHT22;16382;59.942;30.472;2022-12-24T16:08:21;0.50;99.90
29403;DHT22;16382;59.942;30.472;2022-12-24T16:11:09;0.50;99.90
29403;DHT22;16382;59.942;30.472;2022-12-24T16:13:59;0.50;99.90
29403;DHT22;16382;59.942;30.472;2022-12-24T16:16:35;0.50;99.90